DAL235 PHOG-KLAX
Flight info
| Callsign | DAL235 |
|---|---|
| Flight time | 4h 54m |
| Altitude | 33000 |
| Route | EBBER R577 ELKEY RYDRR2 |
| Aircraft | B739/M-SDE2E3FGHIRWXY/LB1 |
Departure
| Time | 2026-05-07 18:07 |
|---|---|
| Airport | Kahului International Airport (PHOG) |
Arrival
| Time | 2026-05-07 23:01 |
|---|---|
| Airport | Los Angeles International Airport (KLAX) |
| Time | Latitude | Longitude | Altitude | Speed | Heading |
|---|---|---|---|---|---|
| 2026-05-07 17:52 | 20.89572 | -156.43455 | 29 ft | 0 kts | 305° |
| 2026-05-07 17:59 | 20.89566 | -156.43446 | 30 ft | 3 kts | 305° |
| 2026-05-07 18:00 | 20.89556 | -156.43429 | 30 ft | 3 kts | 305° |
| 2026-05-07 18:00 | 20.89545 | -156.43413 | 30 ft | 3 kts | 305° |
| 2026-05-07 18:00 | 20.89540 | -156.43395 | 27 ft | 3 kts | 242° |
| 2026-05-07 18:00 | 20.89545 | -156.43387 | 30 ft | 0 kts | 219° |
| 2026-05-07 18:02 | 20.89533 | -156.43392 | 28 ft | 6 kts | 193° |
| 2026-05-07 18:03 | 20.89493 | -156.43389 | 30 ft | 6 kts | 174° |
| 2026-05-07 18:03 | 20.89454 | -156.43397 | 30 ft | 6 kts | 202° |
| 2026-05-07 18:03 | 20.89398 | -156.43433 | 30 ft | 15 kts | 213° |
| 2026-05-07 18:03 | 20.89304 | -156.43503 | 30 ft | 17 kts | 215° |
| 2026-05-07 18:04 | 20.89211 | -156.43574 | 30 ft | 16 kts | 215° |
| 2026-05-07 18:04 | 20.89130 | -156.43635 | 31 ft | 13 kts | 215° |
| 2026-05-07 18:04 | 20.89057 | -156.43684 | 30 ft | 12 kts | 215° |
| 2026-05-07 18:04 | 20.89012 | -156.43707 | 31 ft | 7 kts | 172° |
| 2026-05-07 18:05 | 20.89009 | -156.43706 | 31 ft | 0 kts | 167° |
| 2026-05-07 18:05 | 20.88970 | -156.43675 | 31 ft | 12 kts | 125° |
| 2026-05-07 18:05 | 20.88945 | -156.43609 | 31 ft | 8 kts | 53° |
| 2026-05-07 18:06 | 20.88954 | -156.43602 | 31 ft | 0 kts | 33° |
| 2026-05-07 18:06 | 20.88982 | -156.43583 | 31 ft | 24 kts | 34° |
| 2026-05-07 18:06 | 20.89333 | -156.43324 | 32 ft | 97 kts | 34° |
| 2026-05-07 18:06 | 20.90060 | -156.42784 | 29 ft | 155 kts | 34° |
| 2026-05-07 18:07 | 20.90967 | -156.42075 | 571 ft | 164 kts | 41° |
| 2026-05-07 18:07 | 20.91785 | -156.41126 | 1111 ft | 185 kts | 49° |
| 2026-05-07 18:07 | 20.92369 | -156.39882 | 1696 ft | 199 kts | 80° |
| 2026-05-07 18:07 | 20.92530 | -156.38341 | 2035 ft | 219 kts | 80° |
| 2026-05-07 18:08 | 20.92758 | -156.36665 | 2349 ft | 231 kts | 78° |
| 2026-05-07 18:08 | 20.93041 | -156.34907 | 2675 ft | 250 kts | 77° |
| 2026-05-07 18:08 | 20.93379 | -156.33051 | 3270 ft | 255 kts | 77° |
| 2026-05-07 18:08 | 20.93771 | -156.31195 | 4034 ft | 258 kts | 74° |
| 2026-05-07 18:09 | 20.94242 | -156.29320 | 4685 ft | 263 kts | 73° |
| 2026-05-07 18:09 | 20.94740 | -156.27418 | 5352 ft | 268 kts | 73° |
| 2026-05-07 18:09 | 20.95248 | -156.25475 | 5982 ft | 273 kts | 73° |
| 2026-05-07 18:09 | 20.95758 | -156.23516 | 6671 ft | 274 kts | 73° |
| 2026-05-07 18:10 | 20.96267 | -156.21550 | 7240 ft | 280 kts | 74° |
| 2026-05-07 18:10 | 20.96789 | -156.19524 | 7795 ft | 285 kts | 74° |
| 2026-05-07 18:10 | 20.97319 | -156.17456 | 8358 ft | 290 kts | 75° |
| 2026-05-07 18:10 | 20.97856 | -156.15356 | 8949 ft | 295 kts | 75° |
| 2026-05-07 18:11 | 20.98402 | -156.13217 | 9492 ft | 301 kts | 75° |
| 2026-05-07 18:11 | 20.98770 | -156.11775 | 9867 ft | 304 kts | 75° |
| 2026-05-07 18:11 | 20.99524 | -156.08811 | 10383 ft | 319 kts | 75° |
| 2026-05-07 18:11 | 21.00124 | -156.06449 | 10525 ft | 338 kts | 75° |
| 2026-05-07 18:12 | 21.00754 | -156.03966 | 10672 ft | 354 kts | 75° |
| 2026-05-07 18:12 | 21.01407 | -156.01395 | 10789 ft | 370 kts | 75° |
| 2026-05-07 18:12 | 21.02095 | -155.98684 | 10899 ft | 385 kts | 75° |
| 2026-05-07 18:12 | 21.02808 | -155.95868 | 10997 ft | 399 kts | 75° |
| 2026-05-07 18:13 | 21.03549 | -155.92935 | 11228 ft | 406 kts | 75° |
| 2026-05-07 18:13 | 21.04291 | -155.90003 | 11610 ft | 409 kts | 75° |
| 2026-05-07 18:13 | 21.05026 | -155.87096 | 12040 ft | 410 kts | 75° |
| 2026-05-07 18:13 | 21.05773 | -155.84139 | 12433 ft | 413 kts | 75° |
| 2026-05-07 18:14 | 21.06524 | -155.81160 | 12833 ft | 415 kts | 75° |
| 2026-05-07 18:14 | 21.07278 | -155.78167 | 13211 ft | 418 kts | 75° |
| 2026-05-07 18:14 | 21.08036 | -155.75151 | 13588 ft | 420 kts | 75° |
| 2026-05-07 18:14 | 21.08798 | -155.72124 | 13948 ft | 422 kts | 75° |
| 2026-05-07 18:15 | 21.09563 | -155.69078 | 14273 ft | 424 kts | 75° |
| 2026-05-07 18:15 | 21.10330 | -155.66023 | 14599 ft | 426 kts | 75° |
| 2026-05-07 18:15 | 21.11100 | -155.62953 | 14927 ft | 428 kts | 75° |
| 2026-05-07 18:15 | 21.11873 | -155.59868 | 15232 ft | 430 kts | 75° |
| 2026-05-07 18:16 | 21.12651 | -155.56766 | 15558 ft | 431 kts | 75° |
| 2026-05-07 18:16 | 21.13429 | -155.53658 | 15853 ft | 433 kts | 75° |
| 2026-05-07 18:16 | 21.14210 | -155.50536 | 16172 ft | 435 kts | 75° |
| 2026-05-07 18:16 | 21.14995 | -155.47394 | 16441 ft | 437 kts | 75° |
| 2026-05-07 18:17 | 21.15781 | -155.44247 | 16735 ft | 438 kts | 75° |
| 2026-05-07 18:17 | 21.16571 | -155.41081 | 17013 ft | 440 kts | 75° |
| 2026-05-07 18:17 | 21.17360 | -155.37914 | 17314 ft | 441 kts | 75° |
| 2026-05-07 18:17 | 21.18153 | -155.34731 | 17598 ft | 442 kts | 75° |
| 2026-05-07 18:18 | 21.18947 | -155.31540 | 17865 ft | 444 kts | 75° |
| 2026-05-07 18:18 | 21.19745 | -155.28330 | 18110 ft | 446 kts | 75° |
| 2026-05-07 18:18 | 21.20545 | -155.25109 | 18339 ft | 449 kts | 75° |
| 2026-05-07 18:18 | 21.21349 | -155.21871 | 18594 ft | 449 kts | 75° |
| 2026-05-07 18:19 | 21.22152 | -155.18631 | 18801 ft | 451 kts | 75° |
| 2026-05-07 18:19 | 21.22946 | -155.15429 | 19054 ft | 451 kts | 75° |
| 2026-05-07 18:19 | 21.23752 | -155.12172 | 19285 ft | 452 kts | 75° |
| 2026-05-07 18:19 | 21.24559 | -155.08908 | 19478 ft | 454 kts | 75° |
| 2026-05-07 18:20 | 21.25370 | -155.05627 | 19689 ft | 455 kts | 75° |
| 2026-05-07 18:20 | 21.26181 | -155.02343 | 19914 ft | 456 kts | 75° |
| 2026-05-07 18:20 | 21.26993 | -154.99051 | 20137 ft | 457 kts | 75° |
| 2026-05-07 18:20 | 21.27805 | -154.95755 | 20333 ft | 459 kts | 75° |
| 2026-05-07 18:21 | 21.28621 | -154.92443 | 20539 ft | 460 kts | 75° |
| 2026-05-07 18:21 | 21.29438 | -154.89121 | 20705 ft | 461 kts | 75° |
| 2026-05-07 18:21 | 21.30258 | -154.85784 | 20924 ft | 462 kts | 75° |
| 2026-05-07 18:21 | 21.31078 | -154.82444 | 21105 ft | 463 kts | 75° |
| 2026-05-07 18:22 | 21.31898 | -154.79101 | 21311 ft | 464 kts | 75° |
| 2026-05-07 18:22 | 21.32443 | -154.76880 | 21426 ft | 465 kts | 75° |
| 2026-05-07 18:22 | 21.33547 | -154.72373 | 21663 ft | 467 kts | 75° |
| 2026-05-07 18:22 | 21.34371 | -154.69002 | 21849 ft | 468 kts | 75° |
| 2026-05-07 18:23 | 21.35197 | -154.65624 | 22015 ft | 469 kts | 75° |
| 2026-05-07 18:23 | 21.36014 | -154.62278 | 22191 ft | 470 kts | 75° |
| 2026-05-07 18:23 | 21.36846 | -154.58870 | 22343 ft | 471 kts | 75° |
| 2026-05-07 18:23 | 21.37676 | -154.55465 | 22495 ft | 472 kts | 76° |
| 2026-05-07 18:24 | 21.38508 | -154.52048 | 22645 ft | 474 kts | 76° |
| 2026-05-07 18:24 | 21.39342 | -154.48618 | 22783 ft | 475 kts | 76° |
| 2026-05-07 18:24 | 21.40177 | -154.45181 | 22962 ft | 476 kts | 76° |
| 2026-05-07 18:24 | 21.41012 | -154.41743 | 23106 ft | 477 kts | 76° |
| 2026-05-07 18:25 | 21.41850 | -154.38290 | 23261 ft | 478 kts | 76° |
| 2026-05-07 18:25 | 21.42687 | -154.34834 | 23386 ft | 479 kts | 76° |
| 2026-05-07 18:25 | 21.43526 | -154.31373 | 23556 ft | 479 kts | 76° |
| 2026-05-07 18:25 | 21.44364 | -154.27906 | 23698 ft | 480 kts | 76° |
| 2026-05-07 18:26 | 21.45205 | -154.24427 | 23809 ft | 481 kts | 76° |
| 2026-05-07 18:26 | 21.46044 | -154.20953 | 23925 ft | 482 kts | 76° |
| 2026-05-07 18:26 | 21.46884 | -154.17469 | 24016 ft | 483 kts | 76° |
| 2026-05-07 18:26 | 21.47715 | -154.14020 | 24125 ft | 484 kts | 76° |
| 2026-05-07 18:27 | 21.48557 | -154.10521 | 24224 ft | 485 kts | 76° |
| 2026-05-07 18:27 | 21.49400 | -154.07018 | 24333 ft | 485 kts | 76° |
| 2026-05-07 18:27 | 21.50245 | -154.03499 | 24430 ft | 486 kts | 76° |
| 2026-05-07 18:27 | 21.50804 | -154.01170 | 24496 ft | 487 kts | 76° |
| 2026-05-07 18:28 | 21.51936 | -153.96451 | 24637 ft | 488 kts | 76° |
| 2026-05-07 18:28 | 21.52781 | -153.92920 | 24721 ft | 489 kts | 76° |
| 2026-05-07 18:28 | 21.53627 | -153.89385 | 24829 ft | 489 kts | 76° |
| 2026-05-07 18:28 | 21.54477 | -153.85832 | 24935 ft | 490 kts | 76° |
| 2026-05-07 18:29 | 21.55325 | -153.82280 | 24997 ft | 491 kts | 76° |
| 2026-05-07 18:29 | 21.56174 | -153.78721 | 25060 ft | 493 kts | 76° |
| 2026-05-07 18:29 | 21.57026 | -153.75145 | 25121 ft | 494 kts | 76° |
| 2026-05-07 18:29 | 21.57866 | -153.71618 | 25248 ft | 494 kts | 76° |
| 2026-05-07 18:30 | 21.58718 | -153.68037 | 25355 ft | 494 kts | 76° |
| 2026-05-07 18:30 | 21.59571 | -153.64446 | 25423 ft | 496 kts | 76° |
| 2026-05-07 18:30 | 21.60424 | -153.60853 | 25506 ft | 496 kts | 76° |
| 2026-05-07 18:30 | 21.61278 | -153.57252 | 25572 ft | 498 kts | 76° |
| 2026-05-07 18:31 | 21.62131 | -153.53648 | 25692 ft | 498 kts | 76° |
| 2026-05-07 18:31 | 21.62985 | -153.50040 | 25761 ft | 498 kts | 76° |
| 2026-05-07 18:31 | 21.63839 | -153.46429 | 25866 ft | 499 kts | 76° |
| 2026-05-07 18:31 | 21.64692 | -153.42815 | 25976 ft | 499 kts | 76° |
| 2026-05-07 18:32 | 21.65544 | -153.39205 | 26102 ft | 498 kts | 76° |
| 2026-05-07 18:32 | 21.66395 | -153.35594 | 26266 ft | 497 kts | 76° |
| 2026-05-07 18:32 | 21.67244 | -153.31986 | 26380 ft | 498 kts | 76° |
| 2026-05-07 18:32 | 21.68080 | -153.28432 | 26514 ft | 498 kts | 76° |
| 2026-05-07 18:33 | 21.68927 | -153.24823 | 26643 ft | 498 kts | 76° |
| 2026-05-07 18:33 | 21.69775 | -153.21213 | 26749 ft | 498 kts | 76° |
| 2026-05-07 18:33 | 21.70623 | -153.17599 | 26923 ft | 497 kts | 76° |
| 2026-05-07 18:33 | 21.71640 | -153.14035 | 27074 ft | 497 kts | 68° |
| 2026-05-07 18:34 | 21.73144 | -153.10690 | 27297 ft | 495 kts | 61° |
| 2026-05-07 18:34 | 21.74812 | -153.07461 | 27587 ft | 492 kts | 61° |
| 2026-05-07 18:34 | 21.76491 | -153.04248 | 27748 ft | 493 kts | 61° |
| 2026-05-07 18:34 | 21.78169 | -153.01021 | 27877 ft | 494 kts | 61° |
| 2026-05-07 18:35 | 21.79832 | -152.97788 | 28080 ft | 494 kts | 61° |
| 2026-05-07 18:35 | 21.81459 | -152.94596 | 28299 ft | 493 kts | 62° |
| 2026-05-07 18:35 | 21.83099 | -152.91356 | 28502 ft | 493 kts | 62° |
| 2026-05-07 18:35 | 21.84733 | -152.88113 | 28718 ft | 492 kts | 62° |
| 2026-05-07 18:36 | 21.86361 | -152.84873 | 28968 ft | 491 kts | 62° |
| 2026-05-07 18:36 | 21.87982 | -152.81646 | 29206 ft | 490 kts | 62° |
| 2026-05-07 18:36 | 21.89610 | -152.78403 | 29519 ft | 488 kts | 62° |
| 2026-05-07 18:36 | 21.91223 | -152.75190 | 29817 ft | 487 kts | 62° |
| 2026-05-07 18:37 | 21.92835 | -152.71980 | 30060 ft | 487 kts | 62° |
| 2026-05-07 18:37 | 21.94448 | -152.68764 | 30279 ft | 487 kts | 62° |
| 2026-05-07 18:37 | 21.96062 | -152.65547 | 30513 ft | 486 kts | 62° |
| 2026-05-07 18:37 | 21.97648 | -152.62384 | 30752 ft | 485 kts | 62° |
| 2026-05-07 18:38 | 21.99252 | -152.59181 | 30983 ft | 485 kts | 62° |
| 2026-05-07 18:38 | 22.00851 | -152.55986 | 31215 ft | 484 kts | 62° |
| 2026-05-07 18:38 | 22.02449 | -152.52792 | 31463 ft | 483 kts | 62° |
| 2026-05-07 18:38 | 22.04045 | -152.49599 | 31695 ft | 483 kts | 62° |
| 2026-05-07 18:39 | 22.05635 | -152.46417 | 31963 ft | 482 kts | 62° |
| 2026-05-07 18:39 | 22.07226 | -152.43231 | 32208 ft | 481 kts | 62° |
| 2026-05-07 18:39 | 22.08813 | -152.40051 | 32416 ft | 481 kts | 62° |
| 2026-05-07 18:39 | 22.10380 | -152.36908 | 32626 ft | 481 kts | 62° |
| 2026-05-07 18:40 | 22.11963 | -152.33732 | 32859 ft | 481 kts | 62° |
| 2026-05-07 18:40 | 22.13545 | -152.30557 | 33085 ft | 480 kts | 62° |
| 2026-05-07 18:40 | 22.15131 | -152.27371 | 33110 ft | 482 kts | 62° |
| 2026-05-07 18:41 | 22.18295 | -152.21010 | 33118 ft | 479 kts | 62° |
| 2026-05-07 18:41 | 22.21432 | -152.14694 | 33128 ft | 476 kts | 62° |
| 2026-05-07 18:42 | 22.24537 | -152.08436 | 33123 ft | 475 kts | 62° |
| 2026-05-07 18:42 | 22.27648 | -152.02157 | 33127 ft | 474 kts | 62° |
| 2026-05-07 18:43 | 22.30757 | -151.95874 | 33134 ft | 474 kts | 63° |
| 2026-05-07 18:43 | 22.33872 | -151.89573 | 33131 ft | 476 kts | 63° |
| 2026-05-07 18:44 | 22.36990 | -151.83240 | 33149 ft | 478 kts | 63° |
| 2026-05-07 18:44 | 22.39580 | -151.77954 | 33133 ft | 480 kts | 63° |
| 2026-05-07 18:45 | 22.43218 | -151.70515 | 33140 ft | 482 kts | 63° |
| 2026-05-07 18:45 | 22.45831 | -151.65168 | 33131 ft | 484 kts | 63° |
| 2026-05-07 18:46 | 22.48973 | -151.58732 | 33127 ft | 484 kts | 63° |
| 2026-05-07 18:46 | 22.52110 | -151.52301 | 33129 ft | 483 kts | 63° |
| 2026-05-07 18:47 | 22.55241 | -151.45873 | 33136 ft | 482 kts | 63° |
| 2026-05-07 18:47 | 22.58361 | -151.39458 | 33136 ft | 482 kts | 63° |
| 2026-05-07 18:48 | 22.61477 | -151.33046 | 33135 ft | 481 kts | 63° |
| 2026-05-07 18:48 | 22.64582 | -151.26645 | 33137 ft | 480 kts | 63° |
| 2026-05-07 18:49 | 22.67689 | -151.20235 | 33139 ft | 479 kts | 63° |
| 2026-05-07 18:49 | 22.70784 | -151.13838 | 33136 ft | 479 kts | 63° |
| 2026-05-07 18:50 | 22.73856 | -151.07483 | 33137 ft | 479 kts | 63° |
| 2026-05-07 18:50 | 22.76940 | -151.01095 | 33136 ft | 479 kts | 63° |
| 2026-05-07 18:51 | 22.80023 | -150.94700 | 33148 ft | 479 kts | 63° |
| 2026-05-07 18:51 | 22.83109 | -150.88292 | 33144 ft | 480 kts | 63° |
| 2026-05-07 18:52 | 22.86200 | -150.81864 | 33138 ft | 481 kts | 63° |
| 2026-05-07 18:52 | 22.89294 | -150.75422 | 33142 ft | 481 kts | 63° |
| 2026-05-07 18:53 | 22.92383 | -150.68982 | 33142 ft | 481 kts | 63° |
| 2026-05-07 18:53 | 22.95450 | -150.62579 | 33145 ft | 482 kts | 63° |
| 2026-05-07 18:54 | 22.98540 | -150.56120 | 33143 ft | 482 kts | 63° |
| 2026-05-07 18:54 | 23.01629 | -150.49655 | 33155 ft | 482 kts | 63° |
| 2026-05-07 18:55 | 23.04717 | -150.43184 | 33145 ft | 483 kts | 63° |
| 2026-05-07 18:55 | 23.07802 | -150.36709 | 33151 ft | 482 kts | 63° |
| 2026-05-07 18:56 | 23.10882 | -150.30237 | 33150 ft | 483 kts | 63° |
| 2026-05-07 18:56 | 23.13962 | -150.23757 | 33146 ft | 483 kts | 63° |
| 2026-05-07 18:57 | 23.17044 | -150.17265 | 33150 ft | 483 kts | 63° |
| 2026-05-07 18:57 | 23.20099 | -150.10823 | 33154 ft | 482 kts | 63° |
| 2026-05-07 18:58 | 23.23171 | -150.04337 | 33151 ft | 482 kts | 63° |
| 2026-05-07 18:58 | 23.26238 | -149.97848 | 33156 ft | 482 kts | 63° |
| 2026-05-07 18:59 | 23.29304 | -149.91350 | 33155 ft | 482 kts | 63° |
| 2026-05-07 18:59 | 23.32370 | -149.84848 | 33154 ft | 482 kts | 63° |
| 2026-05-07 19:00 | 23.35431 | -149.78347 | 33155 ft | 482 kts | 63° |
| 2026-05-07 19:00 | 23.38470 | -149.71884 | 33160 ft | 482 kts | 63° |
| 2026-05-07 19:01 | 23.41527 | -149.65376 | 33161 ft | 483 kts | 63° |
| 2026-05-07 19:01 | 23.44581 | -149.58865 | 33157 ft | 483 kts | 63° |
| 2026-05-07 19:02 | 23.47633 | -149.52348 | 33158 ft | 483 kts | 63° |
| 2026-05-07 19:02 | 23.50685 | -149.45822 | 33158 ft | 483 kts | 63° |
| 2026-05-07 19:03 | 23.53732 | -149.39300 | 33158 ft | 483 kts | 63° |
| 2026-05-07 19:03 | 23.56780 | -149.32766 | 33162 ft | 483 kts | 63° |
| 2026-05-07 19:04 | 23.59803 | -149.26276 | 33159 ft | 483 kts | 63° |
| 2026-05-07 19:04 | 23.62845 | -149.19737 | 33165 ft | 483 kts | 63° |
| 2026-05-07 19:05 | 23.65885 | -149.13193 | 33167 ft | 483 kts | 63° |
| 2026-05-07 19:05 | 23.68922 | -149.06646 | 33167 ft | 484 kts | 63° |
| 2026-05-07 19:06 | 23.71958 | -149.00093 | 33166 ft | 484 kts | 63° |
| 2026-05-07 19:06 | 23.76510 | -148.90251 | 33169 ft | 484 kts | 63° |
| 2026-05-07 19:07 | 23.79521 | -148.83730 | 33169 ft | 484 kts | 63° |
| 2026-05-07 19:07 | 23.82549 | -148.77164 | 33169 ft | 484 kts | 63° |
| 2026-05-07 19:08 | 23.85572 | -148.70598 | 33169 ft | 484 kts | 63° |
| 2026-05-07 19:08 | 23.88111 | -148.65077 | 33172 ft | 484 kts | 63° |
| 2026-05-07 19:09 | 23.90666 | -148.59513 | 33172 ft | 484 kts | 63° |
| 2026-05-07 19:09 | 23.93684 | -148.52934 | 33175 ft | 484 kts | 63° |
| 2026-05-07 19:10 | 23.96704 | -148.46342 | 33169 ft | 484 kts | 63° |
| 2026-05-07 19:10 | 23.99717 | -148.39754 | 33172 ft | 484 kts | 63° |
| 2026-05-07 19:11 | 24.02729 | -148.33162 | 33172 ft | 485 kts | 63° |
| 2026-05-07 19:11 | 24.05741 | -148.26558 | 33172 ft | 485 kts | 63° |
| 2026-05-07 19:12 | 24.08750 | -148.19952 | 33168 ft | 485 kts | 63° |
| 2026-05-07 19:12 | 24.11734 | -148.13392 | 33180 ft | 485 kts | 63° |
| 2026-05-07 19:13 | 24.14737 | -148.06782 | 33178 ft | 485 kts | 63° |
| 2026-05-07 19:13 | 24.17740 | -148.00160 | 33179 ft | 485 kts | 63° |
| 2026-05-07 19:14 | 24.20735 | -147.93548 | 33181 ft | 485 kts | 63° |
| 2026-05-07 19:14 | 24.23731 | -147.86924 | 33182 ft | 485 kts | 63° |
| 2026-05-07 19:15 | 24.26728 | -147.80289 | 33181 ft | 485 kts | 63° |
| 2026-05-07 19:15 | 24.29718 | -147.73658 | 33182 ft | 485 kts | 63° |
| 2026-05-07 19:16 | 24.32683 | -147.67075 | 33186 ft | 485 kts | 63° |
| 2026-05-07 19:16 | 24.35665 | -147.60445 | 33186 ft | 485 kts | 63° |
| 2026-05-07 19:17 | 24.38664 | -147.53766 | 33181 ft | 485 kts | 63° |
| 2026-05-07 19:17 | 24.41621 | -147.47171 | 33182 ft | 484 kts | 63° |
| 2026-05-07 19:18 | 24.44593 | -147.40535 | 33186 ft | 484 kts | 63° |
| 2026-05-07 19:18 | 24.47559 | -147.33901 | 33186 ft | 484 kts | 63° |
| 2026-05-07 19:19 | 24.50523 | -147.27261 | 33184 ft | 484 kts | 63° |
| 2026-05-07 19:19 | 24.53482 | -147.20625 | 33186 ft | 484 kts | 63° |
| 2026-05-07 19:20 | 24.56437 | -147.13987 | 33183 ft | 484 kts | 63° |
| 2026-05-07 19:20 | 24.59390 | -147.07345 | 33181 ft | 483 kts | 63° |
| 2026-05-07 19:21 | 24.62338 | -147.00703 | 33184 ft | 483 kts | 63° |
| 2026-05-07 19:21 | 24.65281 | -146.94063 | 33192 ft | 483 kts | 63° |
| 2026-05-07 19:22 | 24.68225 | -146.87412 | 33191 ft | 484 kts | 63° |
| 2026-05-07 19:22 | 24.71147 | -146.80799 | 33189 ft | 484 kts | 63° |
| 2026-05-07 19:23 | 24.74087 | -146.74137 | 33191 ft | 484 kts | 63° |
| 2026-05-07 19:23 | 24.77021 | -146.67478 | 33191 ft | 484 kts | 63° |
| 2026-05-07 19:24 | 24.79956 | -146.60810 | 33200 ft | 484 kts | 63° |
| 2026-05-07 19:24 | 24.82866 | -146.54186 | 33188 ft | 484 kts | 63° |
| 2026-05-07 19:25 | 24.85793 | -146.47514 | 33191 ft | 484 kts | 63° |
| 2026-05-07 19:25 | 24.88723 | -146.40823 | 33191 ft | 484 kts | 63° |
| 2026-05-07 19:26 | 24.91646 | -146.34141 | 33193 ft | 484 kts | 63° |
| 2026-05-07 19:26 | 24.94570 | -146.27446 | 33192 ft | 484 kts | 64° |
| 2026-05-07 19:27 | 24.97486 | -146.20760 | 33200 ft | 484 kts | 63° |
| 2026-05-07 19:27 | 25.00383 | -146.14105 | 33192 ft | 485 kts | 63° |
| 2026-05-07 19:28 | 25.03296 | -146.07407 | 33196 ft | 485 kts | 63° |
| 2026-05-07 19:28 | 25.06206 | -146.00702 | 33195 ft | 485 kts | 63° |
| 2026-05-07 19:29 | 25.09115 | -145.93991 | 33196 ft | 484 kts | 64° |
| 2026-05-07 19:29 | 25.12020 | -145.87279 | 33196 ft | 484 kts | 64° |
| 2026-05-07 19:30 | 25.14926 | -145.80555 | 33199 ft | 485 kts | 63° |
| 2026-05-07 19:30 | 25.17806 | -145.73879 | 33199 ft | 485 kts | 63° |
| 2026-05-07 19:31 | 25.20707 | -145.67147 | 33198 ft | 485 kts | 64° |
| 2026-05-07 19:31 | 25.23598 | -145.60425 | 33199 ft | 485 kts | 64° |
| 2026-05-07 19:32 | 25.26002 | -145.54829 | 33196 ft | 485 kts | 64° |
| 2026-05-07 19:32 | 25.29380 | -145.46953 | 33204 ft | 485 kts | 64° |
| 2026-05-07 19:33 | 25.31774 | -145.41360 | 33199 ft | 485 kts | 64° |
| 2026-05-07 19:33 | 25.35123 | -145.33522 | 33199 ft | 485 kts | 64° |
| 2026-05-07 19:34 | 25.37522 | -145.27898 | 33198 ft | 485 kts | 64° |
| 2026-05-07 19:34 | 25.40400 | -145.21143 | 33201 ft | 485 kts | 64° |
| 2026-05-07 19:35 | 25.43274 | -145.14386 | 33204 ft | 485 kts | 64° |
| 2026-05-07 19:35 | 25.46143 | -145.07630 | 33208 ft | 485 kts | 64° |
| 2026-05-07 19:36 | 25.49011 | -145.00867 | 33205 ft | 486 kts | 64° |
| 2026-05-07 19:36 | 25.51880 | -144.94090 | 33205 ft | 486 kts | 64° |
| 2026-05-07 19:37 | 25.54743 | -144.87318 | 33204 ft | 486 kts | 64° |
| 2026-05-07 19:37 | 25.57603 | -144.80541 | 33205 ft | 486 kts | 64° |
| 2026-05-07 19:38 | 25.60462 | -144.73756 | 33213 ft | 486 kts | 64° |
| 2026-05-07 19:38 | 25.63319 | -144.66964 | 33206 ft | 486 kts | 64° |
| 2026-05-07 19:39 | 25.66175 | -144.60167 | 33207 ft | 486 kts | 64° |
| 2026-05-07 19:39 | 25.69008 | -144.53411 | 33209 ft | 486 kts | 64° |
| 2026-05-07 19:40 | 25.71856 | -144.46609 | 33205 ft | 486 kts | 64° |
| 2026-05-07 19:40 | 25.74702 | -144.39802 | 33208 ft | 486 kts | 64° |
| 2026-05-07 19:41 | 25.77548 | -144.32983 | 33208 ft | 487 kts | 64° |
| 2026-05-07 19:41 | 25.80391 | -144.26161 | 33213 ft | 487 kts | 64° |
| 2026-05-07 19:42 | 25.83229 | -144.19340 | 33208 ft | 487 kts | 64° |
| 2026-05-07 19:42 | 25.86066 | -144.12509 | 33210 ft | 487 kts | 64° |
| 2026-05-07 19:43 | 25.88905 | -144.05664 | 33210 ft | 487 kts | 64° |
| 2026-05-07 19:43 | 25.91720 | -143.98866 | 33207 ft | 487 kts | 64° |
| 2026-05-07 19:44 | 25.94551 | -143.92018 | 33210 ft | 487 kts | 64° |
| 2026-05-07 19:44 | 25.97377 | -143.85171 | 33210 ft | 488 kts | 64° |
| 2026-05-07 19:45 | 26.00203 | -143.78313 | 33214 ft | 488 kts | 64° |
| 2026-05-07 19:45 | 26.03027 | -143.71449 | 33212 ft | 488 kts | 64° |
| 2026-05-07 19:46 | 26.05847 | -143.64582 | 33213 ft | 488 kts | 64° |
| 2026-05-07 19:46 | 26.08648 | -143.57751 | 33209 ft | 488 kts | 64° |
| 2026-05-07 19:47 | 26.11464 | -143.50871 | 33212 ft | 488 kts | 64° |
| 2026-05-07 19:47 | 26.14278 | -143.43987 | 33214 ft | 488 kts | 64° |
| 2026-05-07 19:48 | 26.17088 | -143.37100 | 33213 ft | 488 kts | 64° |
| 2026-05-07 19:48 | 26.19892 | -143.30216 | 33221 ft | 488 kts | 64° |
| 2026-05-07 19:49 | 26.22697 | -143.23320 | 33211 ft | 488 kts | 64° |
| 2026-05-07 19:49 | 26.25497 | -143.16424 | 33221 ft | 488 kts | 64° |
| 2026-05-07 19:50 | 26.28276 | -143.09566 | 33219 ft | 489 kts | 65° |
| 2026-05-07 19:50 | 26.31072 | -143.02657 | 33220 ft | 489 kts | 65° |
| 2026-05-07 19:51 | 26.33868 | -142.95738 | 33224 ft | 489 kts | 65° |
| 2026-05-07 19:51 | 26.36643 | -142.88857 | 33219 ft | 489 kts | 65° |
| 2026-05-07 19:52 | 26.39430 | -142.81935 | 33217 ft | 489 kts | 65° |
| 2026-05-07 19:52 | 26.42217 | -142.75003 | 33217 ft | 489 kts | 65° |
| 2026-05-07 19:53 | 26.44999 | -142.68069 | 33219 ft | 489 kts | 65° |
| 2026-05-07 19:53 | 26.47778 | -142.61133 | 33225 ft | 489 kts | 65° |
| 2026-05-07 19:54 | 26.50536 | -142.54238 | 33221 ft | 490 kts | 65° |
| 2026-05-07 19:54 | 26.53308 | -142.47296 | 33226 ft | 490 kts | 65° |
| 2026-05-07 19:55 | 26.56077 | -142.40348 | 33224 ft | 490 kts | 65° |
| 2026-05-07 19:55 | 26.58846 | -142.33388 | 33226 ft | 490 kts | 65° |
| 2026-05-07 19:56 | 26.61609 | -142.26433 | 33234 ft | 490 kts | 65° |
| 2026-05-07 19:56 | 26.64371 | -142.19469 | 33224 ft | 490 kts | 65° |
| 2026-05-07 19:57 | 26.67132 | -142.12496 | 33221 ft | 490 kts | 65° |
| 2026-05-07 19:57 | 26.69891 | -142.05514 | 33222 ft | 490 kts | 65° |
| 2026-05-07 19:58 | 26.72643 | -141.98539 | 33226 ft | 490 kts | 65° |
| 2026-05-07 19:58 | 26.75392 | -141.91559 | 33228 ft | 490 kts | 65° |
| 2026-05-07 19:59 | 26.78140 | -141.84569 | 33227 ft | 491 kts | 65° |
| 2026-05-07 19:59 | 26.80884 | -141.77578 | 33228 ft | 491 kts | 65° |
| 2026-05-07 20:00 | 26.83607 | -141.70627 | 33229 ft | 491 kts | 65° |
| 2026-05-07 20:00 | 26.86347 | -141.63624 | 33231 ft | 491 kts | 65° |
| 2026-05-07 20:01 | 26.89081 | -141.56620 | 33224 ft | 491 kts | 65° |
| 2026-05-07 20:01 | 26.91815 | -141.49605 | 33232 ft | 491 kts | 65° |
| 2026-05-07 20:02 | 26.94547 | -141.42585 | 33230 ft | 491 kts | 65° |
| 2026-05-07 20:02 | 26.97273 | -141.35566 | 33233 ft | 491 kts | 65° |
| 2026-05-07 20:03 | 26.99977 | -141.28590 | 33230 ft | 491 kts | 65° |
| 2026-05-07 20:03 | 27.02696 | -141.21567 | 33233 ft | 491 kts | 65° |
| 2026-05-07 20:04 | 27.05413 | -141.14533 | 33230 ft | 491 kts | 65° |
| 2026-05-07 20:04 | 27.08127 | -141.07496 | 33232 ft | 491 kts | 66° |
| 2026-05-07 20:05 | 27.10837 | -141.00457 | 33229 ft | 491 kts | 66° |
| 2026-05-07 20:05 | 27.13526 | -140.93461 | 33247 ft | 491 kts | 66° |
| 2026-05-07 20:06 | 27.16230 | -140.86411 | 33231 ft | 492 kts | 66° |
| 2026-05-07 20:06 | 27.18931 | -140.79359 | 33235 ft | 492 kts | 66° |
| 2026-05-07 20:07 | 27.21632 | -140.72292 | 33237 ft | 492 kts | 66° |
| 2026-05-07 20:07 | 27.24328 | -140.65225 | 33236 ft | 492 kts | 66° |
| 2026-05-07 20:08 | 27.27019 | -140.58162 | 33247 ft | 492 kts | 66° |
| 2026-05-07 20:08 | 27.29710 | -140.51083 | 33238 ft | 492 kts | 66° |
| 2026-05-07 20:09 | 27.32379 | -140.44050 | 33239 ft | 492 kts | 66° |
| 2026-05-07 20:10 | 27.36407 | -140.33411 | 33239 ft | 492 kts | 66° |
| 2026-05-07 20:10 | 27.39083 | -140.26328 | 33242 ft | 492 kts | 66° |
| 2026-05-07 20:11 | 27.41741 | -140.19279 | 33238 ft | 491 kts | 66° |
| 2026-05-07 20:11 | 27.44406 | -140.12199 | 33244 ft | 491 kts | 66° |
| 2026-05-07 20:12 | 27.47071 | -140.05107 | 33245 ft | 491 kts | 66° |
| 2026-05-07 20:12 | 27.49728 | -139.98023 | 33245 ft | 491 kts | 66° |
| 2026-05-07 20:13 | 27.52378 | -139.90943 | 33247 ft | 491 kts | 66° |
| 2026-05-07 20:13 | 27.55012 | -139.83895 | 33245 ft | 490 kts | 66° |
| 2026-05-07 20:14 | 27.57656 | -139.76806 | 33250 ft | 490 kts | 66° |
| 2026-05-07 20:14 | 27.60296 | -139.69713 | 33251 ft | 490 kts | 66° |
| 2026-05-07 20:15 | 27.62932 | -139.62621 | 33251 ft | 490 kts | 66° |
| 2026-05-07 20:15 | 27.65565 | -139.55520 | 33251 ft | 491 kts | 66° |
| 2026-05-07 20:16 | 27.68196 | -139.48415 | 33251 ft | 490 kts | 66° |
| 2026-05-07 20:16 | 27.70823 | -139.41306 | 33252 ft | 491 kts | 66° |
| 2026-05-07 20:17 | 27.73445 | -139.34196 | 33254 ft | 490 kts | 66° |
| 2026-05-07 20:17 | 27.76066 | -139.27077 | 33254 ft | 491 kts | 66° |
| 2026-05-07 20:18 | 27.78665 | -139.20005 | 33253 ft | 491 kts | 66° |
| 2026-05-07 20:18 | 27.81279 | -139.12878 | 33253 ft | 490 kts | 66° |
| 2026-05-07 20:19 | 27.83884 | -139.05761 | 33251 ft | 490 kts | 66° |
| 2026-05-07 20:19 | 27.86485 | -138.98643 | 33254 ft | 490 kts | 66° |
| 2026-05-07 20:20 | 27.89083 | -138.91518 | 33255 ft | 490 kts | 66° |
| 2026-05-07 20:20 | 27.91680 | -138.84386 | 33241 ft | 490 kts | 66° |
| 2026-05-07 20:21 | 27.94266 | -138.77263 | 33252 ft | 490 kts | 66° |
| 2026-05-07 20:21 | 27.96849 | -138.70132 | 33266 ft | 490 kts | 66° |
| 2026-05-07 20:22 | 27.99412 | -138.63040 | 33254 ft | 490 kts | 66° |
| 2026-05-07 20:22 | 28.01989 | -138.55898 | 33248 ft | 490 kts | 66° |
| 2026-05-07 20:23 | 28.04564 | -138.48746 | 33287 ft | 493 kts | 67° |
| 2026-05-07 20:23 | 28.05423 | -138.46359 | 33393 ft | 494 kts | 67° |
| 2026-05-07 20:23 | 28.07133 | -138.41599 | 33764 ft | 492 kts | 67° |
| 2026-05-07 20:23 | 28.08004 | -138.39171 | 34007 ft | 490 kts | 67° |
| 2026-05-07 20:24 | 28.09282 | -138.35609 | 34325 ft | 487 kts | 67° |
| 2026-05-07 20:24 | 28.10557 | -138.32048 | 34571 ft | 486 kts | 67° |
| 2026-05-07 20:24 | 28.11830 | -138.28495 | 34773 ft | 486 kts | 67° |
| 2026-05-07 20:24 | 28.13099 | -138.24945 | 34957 ft | 485 kts | 66° |
| 2026-05-07 20:25 | 28.14366 | -138.21401 | 35158 ft | 484 kts | 66° |
| 2026-05-07 20:25 | 28.15625 | -138.17873 | 35261 ft | 484 kts | 66° |
| 2026-05-07 20:25 | 28.16889 | -138.14329 | 35256 ft | 485 kts | 66° |
| 2026-05-07 20:26 | 28.19409 | -138.07253 | 35270 ft | 483 kts | 66° |
| 2026-05-07 20:26 | 28.21906 | -138.00227 | 35253 ft | 482 kts | 66° |
| 2026-05-07 20:27 | 28.24408 | -137.93175 | 35267 ft | 481 kts | 67° |
| 2026-05-07 20:27 | 28.26908 | -137.86115 | 35265 ft | 481 kts | 67° |
| 2026-05-07 20:28 | 28.29395 | -137.79077 | 35269 ft | 480 kts | 67° |
| 2026-05-07 20:28 | 28.31877 | -137.72038 | 35270 ft | 480 kts | 67° |
| 2026-05-07 20:29 | 28.34339 | -137.65047 | 35267 ft | 480 kts | 67° |
| 2026-05-07 20:29 | 28.36820 | -137.57984 | 35261 ft | 481 kts | 67° |
| 2026-05-07 20:30 | 28.39296 | -137.50924 | 35268 ft | 482 kts | 67° |
| 2026-05-07 20:30 | 28.41773 | -137.43848 | 35267 ft | 482 kts | 67° |
| 2026-05-07 20:31 | 28.44250 | -137.36756 | 35275 ft | 483 kts | 67° |
| 2026-05-07 20:31 | 28.46727 | -137.29653 | 35265 ft | 483 kts | 67° |
| 2026-05-07 20:32 | 28.49200 | -137.22543 | 35277 ft | 483 kts | 67° |
| 2026-05-07 20:32 | 28.51653 | -137.15479 | 35263 ft | 483 kts | 67° |
| 2026-05-07 20:33 | 28.54116 | -137.08375 | 35264 ft | 482 kts | 67° |
| 2026-05-07 20:33 | 28.56571 | -137.01276 | 35271 ft | 482 kts | 67° |
| 2026-05-07 20:34 | 28.59021 | -136.94178 | 35279 ft | 481 kts | 67° |
| 2026-05-07 20:34 | 28.61465 | -136.87085 | 35267 ft | 481 kts | 67° |
| 2026-05-07 20:35 | 28.63904 | -136.79994 | 35274 ft | 481 kts | 67° |
| 2026-05-07 20:35 | 28.66340 | -136.72897 | 35269 ft | 480 kts | 67° |
| 2026-05-07 20:36 | 28.68765 | -136.65814 | 35273 ft | 480 kts | 67° |
| 2026-05-07 20:36 | 28.71174 | -136.58769 | 35273 ft | 480 kts | 67° |
| 2026-05-07 20:37 | 28.73596 | -136.51669 | 35277 ft | 480 kts | 67° |
| 2026-05-07 20:37 | 28.76015 | -136.44562 | 35273 ft | 481 kts | 67° |
| 2026-05-07 20:38 | 28.78431 | -136.37455 | 35275 ft | 481 kts | 68° |
| 2026-05-07 20:38 | 28.80832 | -136.30373 | 35279 ft | 481 kts | 68° |
| 2026-05-07 20:39 | 28.83243 | -136.23250 | 35277 ft | 481 kts | 68° |
| 2026-05-07 20:39 | 28.85654 | -136.16109 | 35275 ft | 481 kts | 68° |
| 2026-05-07 20:40 | 28.88042 | -136.09025 | 35274 ft | 481 kts | 68° |
| 2026-05-07 20:40 | 28.90445 | -136.01881 | 35279 ft | 481 kts | 68° |
| 2026-05-07 20:41 | 28.92835 | -135.94763 | 35277 ft | 480 kts | 68° |
| 2026-05-07 20:41 | 28.95221 | -135.87641 | 35277 ft | 480 kts | 68° |
| 2026-05-07 20:42 | 28.97603 | -135.80517 | 35275 ft | 479 kts | 68° |
| 2026-05-07 20:42 | 28.99963 | -135.73444 | 35287 ft | 479 kts | 68° |
| 2026-05-07 20:43 | 29.02330 | -135.66335 | 35276 ft | 479 kts | 68° |
| 2026-05-07 20:43 | 29.04693 | -135.59223 | 35280 ft | 478 kts | 68° |
| 2026-05-07 20:44 | 29.07051 | -135.52112 | 35283 ft | 477 kts | 68° |
| 2026-05-07 20:44 | 29.09401 | -135.45013 | 35280 ft | 477 kts | 68° |
| 2026-05-07 20:45 | 29.11734 | -135.37951 | 35287 ft | 477 kts | 68° |
| 2026-05-07 20:45 | 29.14071 | -135.30859 | 35285 ft | 477 kts | 68° |
| 2026-05-07 20:46 | 29.16407 | -135.23758 | 35277 ft | 477 kts | 68° |
| 2026-05-07 20:46 | 29.18741 | -135.16647 | 35283 ft | 477 kts | 68° |
| 2026-05-07 20:47 | 29.21069 | -135.09541 | 35286 ft | 477 kts | 68° |
| 2026-05-07 20:47 | 29.23392 | -135.02433 | 35285 ft | 477 kts | 68° |
| 2026-05-07 20:48 | 29.25699 | -134.95361 | 35291 ft | 477 kts | 68° |
| 2026-05-07 20:48 | 29.28017 | -134.88240 | 35285 ft | 477 kts | 68° |
| 2026-05-07 20:49 | 29.30332 | -134.81116 | 35281 ft | 477 kts | 68° |
| 2026-05-07 20:49 | 29.32644 | -134.73982 | 35286 ft | 477 kts | 68° |
| 2026-05-07 20:50 | 29.34952 | -134.66848 | 35290 ft | 477 kts | 68° |
| 2026-05-07 20:50 | 29.37259 | -134.59703 | 35293 ft | 477 kts | 68° |
| 2026-05-07 20:51 | 29.39559 | -134.52563 | 35290 ft | 477 kts | 68° |
| 2026-05-07 20:51 | 29.41842 | -134.45462 | 35286 ft | 477 kts | 68° |
| 2026-05-07 20:52 | 29.44134 | -134.38317 | 35293 ft | 477 kts | 68° |
| 2026-05-07 20:52 | 29.46423 | -134.31168 | 35285 ft | 477 kts | 68° |
| 2026-05-07 20:53 | 29.48703 | -134.24028 | 35289 ft | 476 kts | 68° |
| 2026-05-07 20:53 | 29.50980 | -134.16886 | 35289 ft | 476 kts | 68° |
| 2026-05-07 20:54 | 29.53249 | -134.09752 | 35293 ft | 476 kts | 68° |
| 2026-05-07 20:54 | 29.55515 | -134.02614 | 35296 ft | 475 kts | 68° |
| 2026-05-07 20:55 | 29.57776 | -133.95474 | 35296 ft | 475 kts | 68° |
| 2026-05-07 20:55 | 29.60031 | -133.88342 | 35291 ft | 474 kts | 68° |
| 2026-05-07 20:56 | 29.62263 | -133.81262 | 35298 ft | 474 kts | 68° |
| 2026-05-07 20:56 | 29.64505 | -133.74138 | 35290 ft | 473 kts | 68° |
| 2026-05-07 20:57 | 29.66740 | -133.67021 | 35299 ft | 473 kts | 68° |
| 2026-05-07 20:57 | 29.68972 | -133.59898 | 35308 ft | 472 kts | 68° |
| 2026-05-07 20:58 | 29.71184 | -133.52827 | 35289 ft | 472 kts | 68° |
| 2026-05-07 20:58 | 29.73402 | -133.45717 | 35293 ft | 472 kts | 68° |
| 2026-05-07 20:59 | 29.75614 | -133.38616 | 35299 ft | 471 kts | 68° |
| 2026-05-07 20:59 | 29.77819 | -133.31521 | 35290 ft | 470 kts | 68° |
| 2026-05-07 21:00 | 29.80016 | -133.24433 | 35291 ft | 469 kts | 68° |
| 2026-05-07 21:00 | 29.82204 | -133.17356 | 35303 ft | 468 kts | 68° |
| 2026-05-07 21:01 | 29.84383 | -133.10294 | 35293 ft | 468 kts | 68° |
| 2026-05-07 21:01 | 29.86557 | -133.03238 | 35292 ft | 467 kts | 68° |
| 2026-05-07 21:02 | 29.88721 | -132.96196 | 35297 ft | 466 kts | 68° |
| 2026-05-07 21:02 | 29.90879 | -132.89159 | 35292 ft | 465 kts | 68° |
| 2026-05-07 21:03 | 29.93015 | -132.82181 | 35291 ft | 465 kts | 68° |
| 2026-05-07 21:03 | 29.95160 | -132.75157 | 35291 ft | 464 kts | 68° |
| 2026-05-07 21:04 | 29.97302 | -132.68125 | 35293 ft | 464 kts | 68° |
| 2026-05-07 21:04 | 29.99444 | -132.61082 | 35303 ft | 465 kts | 68° |
| 2026-05-07 21:05 | 30.01579 | -132.54044 | 35295 ft | 465 kts | 68° |
| 2026-05-07 21:05 | 30.03711 | -132.47001 | 35294 ft | 465 kts | 68° |
| 2026-05-07 21:06 | 30.05830 | -132.39985 | 35298 ft | 465 kts | 68° |
| 2026-05-07 21:06 | 30.07958 | -132.32923 | 35293 ft | 466 kts | 68° |
| 2026-05-07 21:07 | 30.10082 | -132.25861 | 35293 ft | 466 kts | 68° |
| 2026-05-07 21:07 | 30.12204 | -132.18787 | 35298 ft | 466 kts | 68° |
| 2026-05-07 21:08 | 30.14323 | -132.11711 | 35292 ft | 466 kts | 68° |
| 2026-05-07 21:08 | 30.16435 | -132.04639 | 35291 ft | 465 kts | 68° |
| 2026-05-07 21:09 | 30.18543 | -131.97568 | 35297 ft | 465 kts | 68° |
| 2026-05-07 21:09 | 30.20644 | -131.90501 | 35291 ft | 465 kts | 68° |
| 2026-05-07 21:10 | 30.22728 | -131.83479 | 35293 ft | 464 kts | 68° |
| 2026-05-07 21:10 | 30.24820 | -131.76412 | 35300 ft | 464 kts | 68° |
| 2026-05-07 21:11 | 30.26912 | -131.69331 | 35290 ft | 464 kts | 68° |
| 2026-05-07 21:11 | 30.29683 | -131.59924 | 35293 ft | 463 kts | 68° |
| 2026-05-07 21:12 | 30.32093 | -131.51719 | 35293 ft | 463 kts | 68° |
| 2026-05-07 21:12 | 30.33826 | -131.45804 | 35289 ft | 463 kts | 68° |
| 2026-05-07 21:13 | 30.35890 | -131.38745 | 35293 ft | 463 kts | 68° |
| 2026-05-07 21:13 | 30.37948 | -131.31688 | 35301 ft | 462 kts | 68° |
| 2026-05-07 21:14 | 30.39989 | -131.24676 | 35288 ft | 462 kts | 68° |
| 2026-05-07 21:14 | 30.42039 | -131.17617 | 35291 ft | 462 kts | 68° |
| 2026-05-07 21:15 | 30.44081 | -131.10568 | 35297 ft | 461 kts | 68° |
| 2026-05-07 21:15 | 30.46118 | -131.03521 | 35289 ft | 461 kts | 68° |
| 2026-05-07 21:16 | 30.48150 | -130.96477 | 35288 ft | 460 kts | 68° |
| 2026-05-07 21:16 | 30.50173 | -130.89445 | 35294 ft | 460 kts | 68° |
| 2026-05-07 21:17 | 30.52195 | -130.82402 | 35289 ft | 459 kts | 68° |
| 2026-05-07 21:17 | 30.54196 | -130.75417 | 35287 ft | 459 kts | 68° |
| 2026-05-07 21:18 | 30.56205 | -130.68388 | 35287 ft | 458 kts | 68° |
| 2026-05-07 21:18 | 30.58207 | -130.61367 | 35288 ft | 458 kts | 68° |
| 2026-05-07 21:19 | 30.60208 | -130.54332 | 35286 ft | 458 kts | 68° |
| 2026-05-07 21:19 | 30.62203 | -130.47302 | 35293 ft | 458 kts | 68° |
| 2026-05-07 21:20 | 30.64185 | -130.40304 | 35284 ft | 458 kts | 68° |
| 2026-05-07 21:20 | 30.66175 | -130.33262 | 35283 ft | 459 kts | 68° |
| 2026-05-07 21:21 | 30.68160 | -130.26218 | 35283 ft | 459 kts | 68° |
| 2026-05-07 21:21 | 30.70143 | -130.19167 | 35282 ft | 459 kts | 68° |
| 2026-05-07 21:22 | 30.72122 | -130.12113 | 35283 ft | 459 kts | 69° |
| 2026-05-07 21:22 | 30.74092 | -130.05075 | 35283 ft | 459 kts | 69° |
| 2026-05-07 21:23 | 30.76065 | -129.98008 | 35281 ft | 460 kts | 69° |
| 2026-05-07 21:23 | 30.78038 | -129.90928 | 35278 ft | 460 kts | 69° |
| 2026-05-07 21:24 | 30.80007 | -129.83843 | 35270 ft | 460 kts | 69° |
| 2026-05-07 21:24 | 30.81971 | -129.76757 | 35283 ft | 460 kts | 69° |
| 2026-05-07 21:25 | 30.83932 | -129.69669 | 35282 ft | 460 kts | 69° |
| 2026-05-07 21:25 | 30.85875 | -129.62627 | 35279 ft | 460 kts | 69° |
| 2026-05-07 21:26 | 30.87827 | -129.55537 | 35283 ft | 460 kts | 69° |
| 2026-05-07 21:26 | 30.89780 | -129.48427 | 35269 ft | 460 kts | 69° |
| 2026-05-07 21:27 | 30.91727 | -129.41320 | 35270 ft | 460 kts | 69° |
| 2026-05-07 21:27 | 30.93669 | -129.34213 | 35276 ft | 460 kts | 69° |
| 2026-05-07 21:28 | 30.95607 | -129.27106 | 35276 ft | 460 kts | 69° |
| 2026-05-07 21:28 | 30.97529 | -129.20039 | 35275 ft | 460 kts | 69° |
| 2026-05-07 21:29 | 30.99459 | -129.12928 | 35271 ft | 460 kts | 69° |
| 2026-05-07 21:29 | 31.01386 | -129.05807 | 35273 ft | 460 kts | 69° |
| 2026-05-07 21:30 | 31.03312 | -128.98676 | 35273 ft | 460 kts | 69° |
| 2026-05-07 21:30 | 31.05215 | -128.91611 | 35273 ft | 460 kts | 69° |
| 2026-05-07 21:31 | 31.07130 | -128.84486 | 35275 ft | 460 kts | 69° |
| 2026-05-07 21:31 | 31.09039 | -128.77365 | 35269 ft | 460 kts | 69° |
| 2026-05-07 21:32 | 31.10944 | -128.70241 | 35264 ft | 459 kts | 69° |
| 2026-05-07 21:32 | 31.12842 | -128.63125 | 35270 ft | 459 kts | 69° |
| 2026-05-07 21:33 | 31.14725 | -128.56049 | 35263 ft | 459 kts | 69° |
| 2026-05-07 21:33 | 31.16616 | -128.48926 | 35260 ft | 459 kts | 69° |
| 2026-05-07 21:34 | 31.18501 | -128.41807 | 35261 ft | 459 kts | 69° |
| 2026-05-07 21:34 | 31.20384 | -128.34677 | 35261 ft | 459 kts | 69° |
| 2026-05-07 21:35 | 31.22250 | -128.27593 | 35260 ft | 459 kts | 69° |
| 2026-05-07 21:35 | 31.24122 | -128.20474 | 35261 ft | 459 kts | 69° |
| 2026-05-07 21:36 | 31.25992 | -128.13341 | 35264 ft | 459 kts | 69° |
| 2026-05-07 21:36 | 31.27860 | -128.06199 | 35261 ft | 459 kts | 69° |
| 2026-05-07 21:37 | 31.29722 | -127.99059 | 35256 ft | 459 kts | 69° |
| 2026-05-07 21:37 | 31.31581 | -127.91914 | 35261 ft | 459 kts | 69° |
| 2026-05-07 21:38 | 31.33439 | -127.84757 | 35257 ft | 460 kts | 70° |
| 2026-05-07 21:38 | 31.35281 | -127.77639 | 35252 ft | 460 kts | 70° |
| 2026-05-07 21:39 | 31.37131 | -127.70477 | 35267 ft | 460 kts | 70° |
| 2026-05-07 21:39 | 31.38977 | -127.63310 | 35259 ft | 460 kts | 70° |
| 2026-05-07 21:40 | 31.40818 | -127.56143 | 35255 ft | 459 kts | 70° |
| 2026-05-07 21:40 | 31.42656 | -127.48973 | 35251 ft | 459 kts | 70° |
| 2026-05-07 21:41 | 31.44486 | -127.41813 | 35258 ft | 459 kts | 70° |
| 2026-05-07 21:41 | 31.46299 | -127.34701 | 35252 ft | 458 kts | 70° |
| 2026-05-07 21:42 | 31.48118 | -127.27548 | 35253 ft | 458 kts | 70° |
| 2026-05-07 21:42 | 31.49930 | -127.20402 | 35253 ft | 457 kts | 70° |
| 2026-05-07 21:43 | 31.51739 | -127.13253 | 35247 ft | 457 kts | 70° |
| 2026-05-07 21:43 | 31.53528 | -127.06163 | 35255 ft | 456 kts | 70° |
| 2026-05-07 21:44 | 31.55324 | -126.99026 | 35254 ft | 456 kts | 70° |
| 2026-05-07 21:44 | 31.57114 | -126.91897 | 35241 ft | 455 kts | 70° |
| 2026-05-07 21:45 | 31.58899 | -126.84769 | 35247 ft | 455 kts | 70° |
| 2026-05-07 21:45 | 31.60678 | -126.77645 | 35248 ft | 455 kts | 70° |
| 2026-05-07 21:46 | 31.62455 | -126.70513 | 35245 ft | 455 kts | 70° |
| 2026-05-07 21:46 | 31.64226 | -126.63383 | 35245 ft | 456 kts | 70° |
| 2026-05-07 21:47 | 31.65987 | -126.56278 | 35242 ft | 456 kts | 70° |
| 2026-05-07 21:47 | 31.67756 | -126.49120 | 35248 ft | 457 kts | 70° |
| 2026-05-07 21:48 | 31.69524 | -126.41946 | 35240 ft | 458 kts | 70° |
| 2026-05-07 21:48 | 31.71292 | -126.34756 | 35243 ft | 459 kts | 70° |
| 2026-05-07 21:49 | 31.73049 | -126.27549 | 35244 ft | 459 kts | 71° |
| 2026-05-07 21:49 | 31.74813 | -126.20313 | 35238 ft | 461 kts | 71° |
| 2026-05-07 21:50 | 31.76581 | -126.13061 | 35239 ft | 462 kts | 71° |
| 2026-05-07 21:50 | 31.78341 | -126.05830 | 35237 ft | 464 kts | 72° |
| 2026-05-07 21:51 | 31.80111 | -125.98534 | 35240 ft | 465 kts | 72° |
| 2026-05-07 21:51 | 31.81886 | -125.91192 | 35238 ft | 466 kts | 72° |
| 2026-05-07 21:52 | 31.83657 | -125.83851 | 35234 ft | 466 kts | 72° |
| 2026-05-07 21:52 | 31.85423 | -125.76508 | 35233 ft | 466 kts | 72° |
| 2026-05-07 21:53 | 31.87187 | -125.69157 | 35228 ft | 467 kts | 72° |
| 2026-05-07 21:53 | 31.88938 | -125.61836 | 35233 ft | 467 kts | 72° |
| 2026-05-07 21:54 | 31.90694 | -125.54474 | 35226 ft | 467 kts | 72° |
| 2026-05-07 21:54 | 31.92448 | -125.47100 | 35224 ft | 468 kts | 73° |
| 2026-05-07 21:55 | 31.94203 | -125.39708 | 35226 ft | 469 kts | 73° |
| 2026-05-07 21:55 | 31.95953 | -125.32307 | 35227 ft | 469 kts | 73° |
| 2026-05-07 21:56 | 31.97703 | -125.24888 | 35226 ft | 470 kts | 73° |
| 2026-05-07 21:56 | 31.99453 | -125.17454 | 35225 ft | 471 kts | 73° |
| 2026-05-07 21:57 | 32.01199 | -125.10057 | 35221 ft | 472 kts | 73° |
| 2026-05-07 21:57 | 32.02949 | -125.02587 | 35222 ft | 473 kts | 73° |
| 2026-05-07 21:58 | 32.04693 | -124.95106 | 35217 ft | 474 kts | 73° |
| 2026-05-07 21:58 | 32.06439 | -124.87599 | 35222 ft | 474 kts | 73° |
| 2026-05-07 21:59 | 32.08177 | -124.80093 | 35217 ft | 475 kts | 73° |
| 2026-05-07 21:59 | 32.09915 | -124.72570 | 35220 ft | 475 kts | 73° |
| 2026-05-07 22:00 | 32.11651 | -124.65036 | 35214 ft | 476 kts | 73° |
| 2026-05-07 22:00 | 32.13382 | -124.57501 | 35216 ft | 476 kts | 73° |
| 2026-05-07 22:01 | 32.14818 | -124.51233 | 35210 ft | 476 kts | 73° |
| 2026-05-07 22:01 | 32.16824 | -124.42452 | 35208 ft | 476 kts | 74° |
| 2026-05-07 22:02 | 32.18253 | -124.36180 | 35207 ft | 475 kts | 74° |
| 2026-05-07 22:02 | 32.19966 | -124.28639 | 35206 ft | 475 kts | 74° |
| 2026-05-07 22:03 | 32.21674 | -124.21098 | 35208 ft | 475 kts | 74° |
| 2026-05-07 22:03 | 32.23380 | -124.13546 | 35202 ft | 475 kts | 74° |
| 2026-05-07 22:04 | 32.25054 | -124.05998 | 35196 ft | 475 kts | 75° |
| 2026-05-07 22:04 | 32.26624 | -123.98457 | 35198 ft | 475 kts | 75° |
| 2026-05-07 22:05 | 32.28183 | -123.90877 | 35205 ft | 475 kts | 75° |
| 2026-05-07 22:05 | 32.29752 | -123.83288 | 35197 ft | 475 kts | 75° |
| 2026-05-07 22:06 | 32.31330 | -123.75706 | 35195 ft | 475 kts | 75° |
| 2026-05-07 22:06 | 32.32909 | -123.68116 | 35196 ft | 475 kts | 75° |
| 2026-05-07 22:07 | 32.34465 | -123.60520 | 35187 ft | 475 kts | 75° |
| 2026-05-07 22:07 | 32.36015 | -123.52915 | 35189 ft | 475 kts | 75° |
| 2026-05-07 22:08 | 32.37563 | -123.45316 | 35189 ft | 475 kts | 75° |
| 2026-05-07 22:08 | 32.39101 | -123.37768 | 35188 ft | 475 kts | 75° |
| 2026-05-07 22:09 | 32.40647 | -123.30159 | 35188 ft | 475 kts | 75° |
| 2026-05-07 22:09 | 32.42186 | -123.22557 | 35182 ft | 475 kts | 75° |
| 2026-05-07 22:10 | 32.43719 | -123.14956 | 35188 ft | 475 kts | 75° |
| 2026-05-07 22:10 | 32.45248 | -123.07351 | 35181 ft | 475 kts | 75° |
| 2026-05-07 22:11 | 32.46773 | -122.99742 | 35177 ft | 474 kts | 75° |
| 2026-05-07 22:11 | 32.48452 | -122.92189 | 35177 ft | 474 kts | 73° |
| 2026-05-07 22:12 | 32.50233 | -122.84670 | 35178 ft | 474 kts | 73° |
| 2026-05-07 22:12 | 32.51993 | -122.77145 | 35169 ft | 474 kts | 73° |
| 2026-05-07 22:13 | 32.53726 | -122.69613 | 35167 ft | 474 kts | 73° |
| 2026-05-07 22:13 | 32.55437 | -122.62121 | 35166 ft | 473 kts | 73° |
| 2026-05-07 22:14 | 32.57153 | -122.54584 | 35170 ft | 473 kts | 73° |
| 2026-05-07 22:14 | 32.58864 | -122.47050 | 35165 ft | 473 kts | 73° |
| 2026-05-07 22:15 | 32.60571 | -122.39514 | 35161 ft | 473 kts | 73° |
| 2026-05-07 22:15 | 32.62274 | -122.31975 | 35164 ft | 473 kts | 73° |
| 2026-05-07 22:16 | 32.63968 | -122.24447 | 35155 ft | 472 kts | 73° |
| 2026-05-07 22:16 | 32.65659 | -122.16916 | 35155 ft | 472 kts | 73° |
| 2026-05-07 22:17 | 32.67345 | -122.09384 | 35156 ft | 472 kts | 73° |
| 2026-05-07 22:17 | 32.69602 | -122.02209 | 35161 ft | 465 kts | 55° |
| 2026-05-07 22:18 | 32.74824 | -121.92515 | 35146 ft | 465 kts | 55° |
| 2026-05-07 22:19 | 32.78264 | -121.86010 | 35147 ft | 465 kts | 56° |
| 2026-05-07 22:19 | 32.81673 | -121.79473 | 35149 ft | 465 kts | 56° |
| 2026-05-07 22:20 | 32.85069 | -121.72925 | 35142 ft | 465 kts | 56° |
| 2026-05-07 22:20 | 32.88464 | -121.66369 | 35138 ft | 465 kts | 56° |
| 2026-05-07 22:21 | 32.91853 | -121.59815 | 35136 ft | 465 kts | 56° |
| 2026-05-07 22:21 | 32.95237 | -121.53263 | 35135 ft | 464 kts | 56° |
| 2026-05-07 22:22 | 32.98590 | -121.46758 | 35137 ft | 464 kts | 56° |
| 2026-05-07 22:22 | 33.01963 | -121.40204 | 35125 ft | 463 kts | 56° |
| 2026-05-07 22:23 | 33.05323 | -121.33661 | 35126 ft | 463 kts | 56° |
| 2026-05-07 22:23 | 33.08679 | -121.27116 | 35122 ft | 462 kts | 56° |
| 2026-05-07 22:24 | 33.12028 | -121.20572 | 35132 ft | 461 kts | 56° |
| 2026-05-07 22:24 | 33.15368 | -121.14035 | 35117 ft | 461 kts | 56° |
| 2026-05-07 22:25 | 33.18700 | -121.07502 | 35115 ft | 460 kts | 56° |
| 2026-05-07 22:25 | 33.22000 | -121.01020 | 35114 ft | 459 kts | 56° |
| 2026-05-07 22:26 | 33.25316 | -120.94494 | 35118 ft | 459 kts | 56° |
| 2026-05-07 22:26 | 33.28630 | -120.87961 | 35109 ft | 459 kts | 56° |
| 2026-05-07 22:27 | 33.31937 | -120.81431 | 35108 ft | 458 kts | 56° |
| 2026-05-07 22:27 | 33.35235 | -120.74906 | 35106 ft | 458 kts | 56° |
| 2026-05-07 22:28 | 33.38528 | -120.68380 | 35100 ft | 458 kts | 56° |
| 2026-05-07 22:28 | 33.41830 | -120.61860 | 35103 ft | 458 kts | 55° |
| 2026-05-07 22:29 | 33.45106 | -120.55365 | 35099 ft | 458 kts | 56° |
| 2026-05-07 22:29 | 33.48388 | -120.48818 | 35097 ft | 458 kts | 56° |
| 2026-05-07 22:30 | 33.51667 | -120.42265 | 35085 ft | 459 kts | 56° |
| 2026-05-07 22:30 | 33.54935 | -120.35692 | 35093 ft | 459 kts | 56° |
| 2026-05-07 22:30 | 33.56573 | -120.32393 | 34641 ft | 466 kts | 56° |
| 2026-05-07 22:31 | 33.58228 | -120.29072 | 33902 ft | 460 kts | 56° |
| 2026-05-07 22:31 | 33.59864 | -120.25790 | 33024 ft | 457 kts | 56° |
| 2026-05-07 22:31 | 33.61497 | -120.22517 | 32166 ft | 458 kts | 56° |
| 2026-05-07 22:31 | 33.63133 | -120.19233 | 31286 ft | 459 kts | 56° |
| 2026-05-07 22:32 | 33.64770 | -120.15944 | 30375 ft | 456 kts | 57° |
| 2026-05-07 22:32 | 33.66368 | -120.12727 | 29320 ft | 451 kts | 57° |
| 2026-05-07 22:32 | 33.67971 | -120.09496 | 28314 ft | 451 kts | 57° |
| 2026-05-07 22:32 | 33.69571 | -120.06272 | 27277 ft | 447 kts | 58° |
| 2026-05-07 22:33 | 33.71127 | -120.03132 | 26263 ft | 440 kts | 58° |
| 2026-05-07 22:33 | 33.72697 | -119.99958 | 25527 ft | 433 kts | 58° |
| 2026-05-07 22:33 | 33.74236 | -119.96845 | 24792 ft | 431 kts | 58° |
| 2026-05-07 22:33 | 33.75765 | -119.93747 | 24071 ft | 430 kts | 58° |
| 2026-05-07 22:34 | 33.77272 | -119.90693 | 23288 ft | 419 kts | 58° |
| 2026-05-07 22:34 | 33.78738 | -119.87719 | 22526 ft | 408 kts | 59° |
| 2026-05-07 22:34 | 33.80167 | -119.84819 | 21820 ft | 397 kts | 59° |
| 2026-05-07 22:34 | 33.81558 | -119.81992 | 21156 ft | 390 kts | 59° |
| 2026-05-07 22:35 | 33.82937 | -119.79190 | 20511 ft | 389 kts | 59° |
| 2026-05-07 22:35 | 33.84294 | -119.76431 | 20155 ft | 381 kts | 59° |
| 2026-05-07 22:35 | 33.85620 | -119.73731 | 19961 ft | 370 kts | 59° |
| 2026-05-07 22:35 | 33.86918 | -119.71087 | 19817 ft | 366 kts | 59° |
| 2026-05-07 22:36 | 33.88232 | -119.68407 | 19679 ft | 377 kts | 59° |
| 2026-05-07 22:36 | 33.89576 | -119.65666 | 19505 ft | 381 kts | 59° |
| 2026-05-07 22:36 | 33.90934 | -119.62904 | 18956 ft | 384 kts | 59° |
| 2026-05-07 22:36 | 33.92294 | -119.60142 | 18476 ft | 382 kts | 59° |
| 2026-05-07 22:37 | 33.93646 | -119.57398 | 17908 ft | 380 kts | 59° |
| 2026-05-07 22:37 | 33.94980 | -119.54686 | 17352 ft | 370 kts | 59° |
| 2026-05-07 22:37 | 33.96273 | -119.52056 | 16827 ft | 358 kts | 59° |
| 2026-05-07 22:37 | 33.97524 | -119.49512 | 16339 ft | 347 kts | 59° |
| 2026-05-07 22:38 | 33.98734 | -119.47055 | 15880 ft | 336 kts | 59° |
| 2026-05-07 22:38 | 33.99897 | -119.44687 | 15435 ft | 327 kts | 59° |
| 2026-05-07 22:38 | 34.01037 | -119.42360 | 15001 ft | 319 kts | 59° |
| 2026-05-07 22:38 | 34.02150 | -119.40084 | 14580 ft | 311 kts | 59° |
| 2026-05-07 22:39 | 34.03239 | -119.37857 | 14162 ft | 304 kts | 59° |
| 2026-05-07 22:39 | 34.04300 | -119.35685 | 13745 ft | 298 kts | 59° |
| 2026-05-07 22:39 | 34.05341 | -119.33556 | 13301 ft | 291 kts | 59° |
| 2026-05-07 22:39 | 34.06358 | -119.31475 | 12967 ft | 285 kts | 59° |
| 2026-05-07 22:40 | 34.07354 | -119.29438 | 12814 ft | 280 kts | 59° |
| 2026-05-07 22:40 | 34.08336 | -119.27433 | 12693 ft | 277 kts | 59° |
| 2026-05-07 22:40 | 34.09325 | -119.25410 | 12508 ft | 283 kts | 59° |
| 2026-05-07 22:40 | 34.10329 | -119.23356 | 12336 ft | 283 kts | 58° |
| 2026-05-07 22:41 | 34.11327 | -119.21312 | 12163 ft | 282 kts | 58° |
| 2026-05-07 22:41 | 34.12324 | -119.19264 | 12005 ft | 282 kts | 57° |
| 2026-05-07 22:41 | 34.13315 | -119.17226 | 11842 ft | 281 kts | 58° |
| 2026-05-07 22:41 | 34.14307 | -119.15189 | 11686 ft | 281 kts | 58° |
| 2026-05-07 22:42 | 34.15298 | -119.13153 | 11527 ft | 281 kts | 58° |
| 2026-05-07 22:42 | 34.16289 | -119.11116 | 11369 ft | 281 kts | 57° |
| 2026-05-07 22:42 | 34.17280 | -119.09079 | 11202 ft | 281 kts | 58° |
| 2026-05-07 22:42 | 34.18027 | -119.06898 | 11009 ft | 286 kts | 80° |
| 2026-05-07 22:43 | 34.17888 | -119.04517 | 10981 ft | 286 kts | 103° |
| 2026-05-07 22:43 | 34.17168 | -119.02312 | 10914 ft | 286 kts | 112° |
| 2026-05-07 22:43 | 34.16310 | -119.00143 | 10823 ft | 287 kts | 114° |
| 2026-05-07 22:43 | 34.15443 | -118.98003 | 10723 ft | 277 kts | 114° |
| 2026-05-07 22:44 | 34.14616 | -118.95952 | 10644 ft | 269 kts | 114° |
| 2026-05-07 22:44 | 34.13800 | -118.93907 | 10610 ft | 273 kts | 114° |
| 2026-05-07 22:44 | 34.12971 | -118.91816 | 10542 ft | 278 kts | 114° |
| 2026-05-07 22:44 | 34.12135 | -118.89700 | 10458 ft | 277 kts | 113° |
| 2026-05-07 22:45 | 34.11309 | -118.87603 | 10380 ft | 277 kts | 113° |
| 2026-05-07 22:45 | 34.10482 | -118.85502 | 10325 ft | 277 kts | 112° |
| 2026-05-07 22:45 | 34.09660 | -118.83409 | 10255 ft | 275 kts | 112° |
| 2026-05-07 22:45 | 34.08844 | -118.81329 | 10171 ft | 274 kts | 112° |
| 2026-05-07 22:46 | 34.08031 | -118.79262 | 10111 ft | 272 kts | 112° |
| 2026-05-07 22:46 | 34.07222 | -118.77201 | 10029 ft | 271 kts | 113° |
| 2026-05-07 22:46 | 34.06415 | -118.75149 | 9949 ft | 272 kts | 113° |
| 2026-05-07 22:46 | 34.05597 | -118.73063 | 9718 ft | 277 kts | 113° |
| 2026-05-07 22:47 | 34.04767 | -118.70948 | 9502 ft | 280 kts | 114° |
| 2026-05-07 22:47 | 34.03946 | -118.68853 | 9247 ft | 271 kts | 114° |
| 2026-05-07 22:47 | 34.03420 | -118.67511 | 9083 ft | 263 kts | 114° |
| 2026-05-07 22:47 | 34.02738 | -118.64799 | 8812 ft | 251 kts | 92° |
| 2026-05-07 22:48 | 34.02587 | -118.62674 | 8662 ft | 259 kts | 93° |
| 2026-05-07 22:48 | 34.02467 | -118.61216 | 8527 ft | 257 kts | 94° |
| 2026-05-07 22:48 | 34.02280 | -118.59127 | 8345 ft | 251 kts | 95° |
| 2026-05-07 22:48 | 34.02086 | -118.57052 | 8147 ft | 247 kts | 95° |
| 2026-05-07 22:49 | 34.01891 | -118.54988 | 7955 ft | 249 kts | 95° |
| 2026-05-07 22:49 | 34.01697 | -118.52906 | 7747 ft | 251 kts | 95° |
| 2026-05-07 22:49 | 34.01501 | -118.50808 | 7538 ft | 253 kts | 95° |
| 2026-05-07 22:49 | 34.01303 | -118.48692 | 7329 ft | 255 kts | 95° |
| 2026-05-07 22:50 | 34.01104 | -118.46583 | 7090 ft | 251 kts | 95° |
| 2026-05-07 22:50 | 34.01134 | -118.44505 | 6775 ft | 245 kts | 76° |
| 2026-05-07 22:50 | 34.01520 | -118.42580 | 6678 ft | 227 kts | 75° |
| 2026-05-07 22:50 | 34.01861 | -118.40735 | 6278 ft | 227 kts | 76° |
| 2026-05-07 22:51 | 34.02193 | -118.38868 | 5813 ft | 229 kts | 77° |
| 2026-05-07 22:51 | 34.02522 | -118.36981 | 5402 ft | 229 kts | 77° |
| 2026-05-07 22:51 | 34.02823 | -118.35087 | 4969 ft | 230 kts | 81° |
| 2026-05-07 22:51 | 34.03019 | -118.33196 | 4606 ft | 227 kts | 83° |
| 2026-05-07 22:52 | 34.03201 | -118.31335 | 4213 ft | 226 kts | 83° |
| 2026-05-07 22:52 | 34.03385 | -118.29465 | 3885 ft | 221 kts | 82° |
| 2026-05-07 22:52 | 34.03596 | -118.27649 | 3573 ft | 216 kts | 82° |
| 2026-05-07 22:52 | 34.03793 | -118.25844 | 3210 ft | 215 kts | 83° |
| 2026-05-07 22:53 | 34.03969 | -118.24075 | 2881 ft | 210 kts | 83° |
| 2026-05-07 22:53 | 34.04153 | -118.22338 | 2625 ft | 209 kts | 83° |
| 2026-05-07 22:53 | 34.04336 | -118.20597 | 2561 ft | 211 kts | 82° |
| 2026-05-07 22:53 | 34.04493 | -118.18841 | 2574 ft | 210 kts | 83° |
| 2026-05-07 22:54 | 34.04632 | -118.17089 | 2567 ft | 208 kts | 83° |
| 2026-05-07 22:54 | 34.04771 | -118.15357 | 2591 ft | 210 kts | 83° |
| 2026-05-07 22:54 | 34.04735 | -118.13557 | 2558 ft | 221 kts | 109° |
| 2026-05-07 22:54 | 34.03826 | -118.12138 | 2575 ft | 215 kts | 147° |
| 2026-05-07 22:55 | 34.02468 | -118.11573 | 2570 ft | 203 kts | 178° |
| 2026-05-07 22:55 | 34.01093 | -118.11605 | 2570 ft | 201 kts | 184° |
| 2026-05-07 22:55 | 33.99700 | -118.11772 | 2548 ft | 201 kts | 200° |
| 2026-05-07 22:55 | 33.98574 | -118.12679 | 2585 ft | 194 kts | 231° |
| 2026-05-07 22:56 | 33.98093 | -118.14138 | 2593 ft | 189 kts | 267° |
| 2026-05-07 22:56 | 33.97930 | -118.15726 | 2595 ft | 192 kts | 256° |
| 2026-05-07 22:56 | 33.97618 | -118.17304 | 2609 ft | 201 kts | 260° |
| 2026-05-07 22:56 | 33.97399 | -118.19039 | 2607 ft | 212 kts | 262° |
| 2026-05-07 22:57 | 33.97207 | -118.20799 | 2586 ft | 213 kts | 263° |
| 2026-05-07 22:57 | 33.97036 | -118.22525 | 2555 ft | 199 kts | 263° |
| 2026-05-07 22:57 | 33.96877 | -118.24093 | 2566 ft | 179 kts | 263° |
| 2026-05-07 22:57 | 33.96728 | -118.25520 | 2451 ft | 171 kts | 263° |
| 2026-05-07 22:58 | 33.96582 | -118.26931 | 2243 ft | 166 kts | 262° |
| 2026-05-07 22:58 | 33.96445 | -118.28255 | 2035 ft | 153 kts | 261° |
| 2026-05-07 22:58 | 33.96317 | -118.29490 | 1835 ft | 144 kts | 259° |
| 2026-05-07 22:58 | 33.96196 | -118.30650 | 1653 ft | 140 kts | 259° |
| 2026-05-07 22:59 | 33.96071 | -118.31840 | 1461 ft | 148 kts | 261° |
| 2026-05-07 22:59 | 33.95946 | -118.33065 | 1281 ft | 147 kts | 261° |
| 2026-05-07 22:59 | 33.95821 | -118.34284 | 1065 ft | 144 kts | 260° |
| 2026-05-07 22:59 | 33.95700 | -118.35456 | 854 ft | 142 kts | 260° |
| 2026-05-07 23:00 | 33.95574 | -118.36627 | 706 ft | 144 kts | 261° |
| 2026-05-07 23:00 | 33.95440 | -118.37867 | 557 ft | 149 kts | 263° |
| 2026-05-07 23:00 | 33.95324 | -118.39075 | 333 ft | 142 kts | 263° |
| 2026-05-07 23:00 | 33.95204 | -118.40237 | 133 ft | 139 kts | 263° |
| 2026-05-07 23:01 | 33.95091 | -118.41322 | 95 ft | 114 kts | 265° |
| 2026-05-07 23:01 | 33.95016 | -118.42041 | 93 ft | 62 kts | 263° |
| 2026-05-07 23:01 | 33.94971 | -118.42306 | 93 ft | 24 kts | 241° |
| 2026-05-07 23:01 | 33.94909 | -118.42414 | 93 ft | 12 kts | 229° |
| 2026-05-07 23:02 | 33.94869 | -118.42460 | 95 ft | 0 kts | 219° |
| 2026-05-07 23:02 | 33.94817 | -118.42486 | 97 ft | 11 kts | 189° |
| 2026-05-07 23:02 | 33.94739 | -118.42484 | 98 ft | 11 kts | 175° |
| 2026-05-07 23:03 | 33.94669 | -118.42420 | 96 ft | 20 kts | 96° |
| 2026-05-07 23:03 | 33.94683 | -118.42246 | 93 ft | 21 kts | 82° |
| 2026-05-07 23:03 | 33.94703 | -118.42076 | 95 ft | 20 kts | 84° |
| 2026-05-07 23:03 | 33.94717 | -118.41911 | 94 ft | 20 kts | 84° |
| 2026-05-07 23:04 | 33.94732 | -118.41750 | 93 ft | 20 kts | 82° |
| 2026-05-07 23:04 | 33.94748 | -118.41590 | 94 ft | 19 kts | 85° |
| 2026-05-07 23:04 | 33.94767 | -118.41427 | 93 ft | 23 kts | 75° |
| 2026-05-07 23:04 | 33.94798 | -118.41234 | 93 ft | 23 kts | 84° |
| 2026-05-07 23:05 | 33.94818 | -118.41046 | 94 ft | 22 kts | 81° |
| 2026-05-07 23:05 | 33.94838 | -118.40863 | 94 ft | 22 kts | 86° |
| 2026-05-07 23:05 | 33.94851 | -118.40709 | 93 ft | 16 kts | 82° |
| 2026-05-07 23:05 | 33.94838 | -118.40609 | 94 ft | 12 kts | 148° |
| 2026-05-07 23:06 | 33.94761 | -118.40581 | 94 ft | 10 kts | 152° |
| 2026-05-07 23:06 | 33.94700 | -118.40556 | 93 ft | 8 kts | 167° |
| 2026-05-07 23:06 | 33.94658 | -118.40522 | 94 ft | 8 kts | 102° |
| 2026-05-07 23:06 | 33.94655 | -118.40484 | 93 ft | 0 kts | 96° |
| 2026-05-07 23:07 | 33.94654 | -118.40483 | 93 ft | 0 kts | 96° |